sensor_id;sensor_type;location;lat;lon;timestamp;P1;durP1;ratioP1;P2;durP2;ratioP2
62941;SDS011;49042;47.318;19.874;2023-08-08T00:01:16;2.45;;;0.82;;
62941;SDS011;49042;47.318;19.874;2023-08-08T00:04:18;0.73;;;0.73;;
62941;SDS011;49042;47.318;19.874;2023-08-08T00:07:19;0.98;;;0.90;;
62941;SDS011;49042;47.318;19.874;2023-08-08T00:10:21;2.05;;;0.90;;
62941;SDS011;49042;47.318;19.874;2023-08-08T00:13:23;1.70;;;0.90;;
62941;SDS011;49042;47.318;19.874;2023-08-08T00:16:24;1.27;;;0.85;;
62941;SDS011;49042;47.318;19.874;2023-08-08T00:19:26;5.62;;;1.00;;
62941;SDS011;49042;47.318;19.874;2023-08-08T00:22:28;0.70;;;0.70;;
62941;SDS011;49042;47.318;19.874;2023-08-08T00:25:30;3.00;;;0.90;;
62941;SDS011;49042;47.318;19.874;2023-08-08T00:28:32;1.33;;;0.80;;
62941;SDS011;49042;47.318;19.874;2023-08-08T00:31:33;0.98;;;0.70;;
62941;SDS011;49042;47.318;19.874;2023-08-08T00:34:35;14.52;;;1.45;;
62941;SDS011;49042;47.318;19.874;2023-08-08T00:37:37;4.95;;;0.80;;
62941;SDS011;49042;47.318;19.874;2023-08-08T00:40:38;2.70;;;1.00;;
62941;SDS011;49042;47.318;19.874;2023-08-08T00:43:40;1.33;;;0.80;;
62941;SDS011;49042;47.318;19.874;2023-08-08T00:46:42;0.70;;;0.70;;
62941;SDS011;49042;47.318;19.874;2023-08-08T00:49:44;0.70;;;0.70;;
62941;SDS011;49042;47.318;19.874;2023-08-08T00:52:47;2.17;;;1.00;;
62941;SDS011;49042;47.318;19.874;2023-08-08T00:55:50;2.78;;;0.75;;
62941;SDS011;49042;47.318;19.874;2023-08-08T00:58:52;0.88;;;0.80;;
62941;SDS011;49042;47.318;19.874;2023-08-08T01:01:54;1.17;;;0.65;;
62941;SDS011;49042;47.318;19.874;2023-08-08T01:04:56;1.00;;;0.75;;
62941;SDS011;49042;47.318;19.874;2023-08-08T01:07:59;3.42;;;0.90;;
62941;SDS011;49042;47.318;19.874;2023-08-08T01:11:03;1.25;;;0.70;;
62941;SDS011;49042;47.318;19.874;2023-08-08T01:14:05;1.15;;;0.90;;
62941;SDS011;49042;47.318;19.874;2023-08-08T01:17:10;1.15;;;0.80;;
62941;SDS011;49042;47.318;19.874;2023-08-08T01:20:13;0.95;;;0.80;;
62941;SDS011;49042;47.318;19.874;2023-08-08T01:26:22;1.12;;;0.70;;
62941;SDS011;49042;47.318;19.874;2023-08-08T01:29:24;3.65;;;0.98;;
62941;SDS011;49042;47.318;19.874;2023-08-08T01:32:26;1.23;;;0.95;;
62941;SDS011;49042;47.318;19.874;2023-08-08T01:35:32;1.95;;;1.05;;
62941;SDS011;49042;47.318;19.874;2023-08-08T01:38:41;3.37;;;0.93;;
62941;SDS011;49042;47.318;19.874;2023-08-08T01:41:46;1.60;;;0.80;;
62941;SDS011;49042;47.318;19.874;2023-08-08T01:44:49;1.23;;;1.00;;
62941;SDS011;49042;47.318;19.874;2023-08-08T01:47:51;1.08;;;0.85;;
62941;SDS011;49042;47.318;19.874;2023-08-08T01:50:53;1.15;;;0.88;;
62941;SDS011;49042;47.318;19.874;2023-08-08T01:53:55;2.03;;;0.80;;
62941;SDS011;49042;47.318;19.874;2023-08-08T01:56:57;1.65;;;0.77;;
62941;SDS011;49042;47.318;19.874;2023-08-08T01:59:59;0.70;;;0.70;;
62941;SDS011;49042;47.318;19.874;2023-08-08T02:03:01;0.77;;;0.75;;
62941;SDS011;49042;47.318;19.874;2023-08-08T02:06:03;0.77;;;0.77;;
62941;SDS011;49042;47.318;19.874;2023-08-08T02:09:05;2.15;;;0.70;;
62941;SDS011;49042;47.318;19.874;2023-08-08T02:12:08;0.90;;;0.80;;
62941;SDS011;49042;47.318;19.874;2023-08-08T02:15:10;0.93;;;0.80;;
62941;SDS011;49042;47.318;19.874;2023-08-08T02:18:12;3.70;;;0.77;;
62941;SDS011;49042;47.318;19.874;2023-08-08T02:21:13;1.45;;;0.90;;
62941;SDS011;49042;47.318;19.874;2023-08-08T02:24:16;2.10;;;0.90;;
62941;SDS011;49042;47.318;19.874;2023-08-08T02:27:17;1.35;;;0.77;;
62941;SDS011;49042;47.318;19.874;2023-08-08T02:30:19;1.05;;;0.95;;
62941;SDS011;49042;47.318;19.874;2023-08-08T02:33:21;3.00;;;0.90;;
62941;SDS011;49042;47.318;19.874;2023-08-08T02:36:23;0.65;;;0.65;;
62941;SDS011;49042;47.318;19.874;2023-08-08T02:39:25;1.55;;;1.10;;
62941;SDS011;49042;47.318;19.874;2023-08-08T02:42:26;1.02;;;0.93;;
62941;SDS011;49042;47.318;19.874;2023-08-08T02:45:28;0.93;;;0.73;;
62941;SDS011;49042;47.318;19.874;2023-08-08T02:48:30;3.50;;;0.98;;
62941;SDS011;49042;47.318;19.874;2023-08-08T02:51:32;1.12;;;0.90;;
62941;SDS011;49042;47.318;19.874;2023-08-08T02:54:34;1.08;;;0.77;;
62941;SDS011;49042;47.318;19.874;2023-08-08T02:57:36;2.05;;;0.93;;
62941;SDS011;49042;47.318;19.874;2023-08-08T03:00:37;2.92;;;1.08;;
62941;SDS011;49042;47.318;19.874;2023-08-08T03:03:39;1.80;;;0.88;;
62941;SDS011;49042;47.318;19.874;2023-08-08T03:06:41;1.35;;;0.90;;
62941;SDS011;49042;47.318;19.874;2023-08-08T03:09:42;2.03;;;1.20;;
62941;SDS011;49042;47.318;19.874;2023-08-08T03:12:44;1.87;;;0.98;;
62941;SDS011;49042;47.318;19.874;2023-08-08T03:15:46;1.48;;;1.00;;
62941;SDS011;49042;47.318;19.874;2023-08-08T03:18:48;1.55;;;0.95;;
62941;SDS011;49042;47.318;19.874;2023-08-08T03:21:49;11.93;;;1.08;;
62941;SDS011;49042;47.318;19.874;2023-08-08T03:24:51;6.43;;;1.23;;
62941;SDS011;49042;47.318;19.874;2023-08-08T03:27:53;0.80;;;0.80;;
62941;SDS011;49042;47.318;19.874;2023-08-08T03:30:55;1.02;;;1.00;;
62941;SDS011;49042;47.318;19.874;2023-08-08T03:33:56;1.15;;;0.93;;
62941;SDS011;49042;47.318;19.874;2023-08-08T03:36:59;1.35;;;1.00;;
62941;SDS011;49042;47.318;19.874;2023-08-08T03:40:01;2.08;;;1.10;;
62941;SDS011;49042;47.318;19.874;2023-08-08T03:43:02;3.83;;;1.00;;
62941;SDS011;49042;47.318;19.874;2023-08-08T03:46:04;3.95;;;1.10;;
62941;SDS011;49042;47.318;19.874;2023-08-08T03:49:06;2.15;;;0.90;;
62941;SDS011;49042;47.318;19.874;2023-08-08T03:52:08;2.95;;;0.93;;
62941;SDS011;49042;47.318;19.874;2023-08-08T03:55:10;1.60;;;1.10;;
62941;SDS011;49042;47.318;19.874;2023-08-08T03:58:11;2.95;;;1.12;;
62941;SDS011;49042;47.318;19.874;2023-08-08T04:01:13;2.03;;;1.08;;
62941;SDS011;49042;47.318;19.874;2023-08-08T04:04:15;1.33;;;1.00;;
62941;SDS011;49042;47.318;19.874;2023-08-08T04:07:17;1.90;;;1.30;;
62941;SDS011;49042;47.318;19.874;2023-08-08T04:10:18;1.20;;;1.10;;
62941;SDS011;49042;47.318;19.874;2023-08-08T04:13:20;2.20;;;1.15;;
62941;SDS011;49042;47.318;19.874;2023-08-08T04:16:22;1.12;;;1.02;;
62941;SDS011;49042;47.318;19.874;2023-08-08T04:19:27;7.05;;;1.33;;
62941;SDS011;49042;47.318;19.874;2023-08-08T04:22:28;3.00;;;1.20;;
62941;SDS011;49042;47.318;19.874;2023-08-08T04:25:30;2.85;;;1.12;;
62941;SDS011;49042;47.318;19.874;2023-08-08T04:28:32;1.50;;;1.23;;
62941;SDS011;49042;47.318;19.874;2023-08-08T04:31:34;4.00;;;1.40;;
62941;SDS011;49042;47.318;19.874;2023-08-08T04:34:35;3.58;;;1.40;;
62941;SDS011;49042;47.318;19.874;2023-08-08T04:37:37;2.05;;;1.40;;
62941;SDS011;49042;47.318;19.874;2023-08-08T04:40:39;2.08;;;1.50;;
62941;SDS011;49042;47.318;19.874;2023-08-08T04:43:40;5.05;;;2.60;;
62941;SDS011;49042;47.318;19.874;2023-08-08T04:46:42;6.40;;;2.50;;
62941;SDS011;49042;47.318;19.874;2023-08-08T04:49:44;4.55;;;1.95;;
62941;SDS011;49042;47.318;19.874;2023-08-08T04:52:45;2.35;;;1.60;;
62941;SDS011;49042;47.318;19.874;2023-08-08T04:55:47;2.12;;;1.40;;
62941;SDS011;49042;47.318;19.874;2023-08-08T04:58:49;3.12;;;1.60;;
62941;SDS011;49042;47.318;19.874;2023-08-08T05:01:51;2.25;;;1.50;;
62941;SDS011;49042;47.318;19.874;2023-08-08T05:04:52;5.75;;;2.00;;
62941;SDS011;49042;47.318;19.874;2023-08-08T05:07:54;1.75;;;1.50;;
62941;SDS011;49042;47.318;19.874;2023-08-08T05:10:56;2.37;;;1.60;;
62941;SDS011;49042;47.318;19.874;2023-08-08T05:13:58;2.10;;;1.02;;
62941;SDS011;49042;47.318;19.874;2023-08-08T05:17:01;3.47;;;1.45;;
62941;SDS011;49042;47.318;19.874;2023-08-08T05:20:04;5.18;;;1.20;;
62941;SDS011;49042;47.318;19.874;2023-08-08T05:23:06;1.40;;;1.20;;
62941;SDS011;49042;47.318;19.874;2023-08-08T05:26:08;1.33;;;1.00;;
62941;SDS011;49042;47.318;19.874;2023-08-08T05:29:10;1.92;;;1.20;;
62941;SDS011;49042;47.318;19.874;2023-08-08T05:32:11;4.80;;;1.15;;
62941;SDS011;49042;47.318;19.874;2023-08-08T05:35:13;2.00;;;1.20;;
62941;SDS011;49042;47.318;19.874;2023-08-08T05:38:15;4.93;;;1.17;;
62941;SDS011;49042;47.318;19.874;2023-08-08T05:41:17;2.37;;;1.25;;
62941;SDS011;49042;47.318;19.874;2023-08-08T05:44:18;2.58;;;1.40;;
62941;SDS011;49042;47.318;19.874;2023-08-08T05:47:20;2.05;;;1.12;;
62941;SDS011;49042;47.318;19.874;2023-08-08T05:50:22;3.22;;;1.33;;
62941;SDS011;49042;47.318;19.874;2023-08-08T05:53:24;1.37;;;1.20;;
62941;SDS011;49042;47.318;19.874;2023-08-08T05:56:27;4.10;;;1.27;;
62941;SDS011;49042;47.318;19.874;2023-08-08T05:59:36;2.03;;;1.10;;
62941;SDS011;49042;47.318;19.874;2023-08-08T06:02:37;2.60;;;1.20;;
62941;SDS011;49042;47.318;19.874;2023-08-08T06:05:39;2.85;;;1.37;;
62941;SDS011;49042;47.318;19.874;2023-08-08T06:08:41;3.08;;;1.37;;
62941;SDS011;49042;47.318;19.874;2023-08-08T06:11:43;1.80;;;1.27;;
62941;SDS011;49042;47.318;19.874;2023-08-08T06:14:44;2.35;;;1.40;;
62941;SDS011;49042;47.318;19.874;2023-08-08T06:17:46;1.62;;;1.10;;
62941;SDS011;49042;47.318;19.874;2023-08-08T06:20:48;2.22;;;1.20;;
62941;SDS011;49042;47.318;19.874;2023-08-08T06:23:50;2.47;;;1.33;;
62941;SDS011;49042;47.318;19.874;2023-08-08T06:26:53;2.20;;;1.42;;
62941;SDS011;49042;47.318;19.874;2023-08-08T06:29:55;4.15;;;1.60;;
62941;SDS011;49042;47.318;19.874;2023-08-08T06:32:57;5.15;;;1.25;;
62941;SDS011;49042;47.318;19.874;2023-08-08T06:35:59;10.20;;;1.40;;
62941;SDS011;49042;47.318;19.874;2023-08-08T06:39:01;2.15;;;1.20;;
62941;SDS011;49042;47.318;19.874;2023-08-08T06:42:03;3.50;;;1.35;;
62941;SDS011;49042;47.318;19.874;2023-08-08T06:45:05;3.17;;;1.33;;
62941;SDS011;49042;47.318;19.874;2023-08-08T06:48:07;4.12;;;1.27;;
62941;SDS011;49042;47.318;19.874;2023-08-08T06:51:09;2.22;;;1.20;;
62941;SDS011;49042;47.318;19.874;2023-08-08T06:54:11;4.45;;;1.27;;
62941;SDS011;49042;47.318;19.874;2023-08-08T06:57:13;2.17;;;1.35;;
62941;SDS011;49042;47.318;19.874;2023-08-08T07:00:15;2.35;;;1.02;;
62941;SDS011;49042;47.318;19.874;2023-08-08T07:03:17;3.47;;;1.20;;
62941;SDS011;49042;47.318;19.874;2023-08-08T07:06:19;2.33;;;1.33;;
62941;SDS011;49042;47.318;19.874;2023-08-08T07:09:21;1.55;;;1.20;;
62941;SDS011;49042;47.318;19.874;2023-08-08T07:12:23;11.15;;;1.40;;
62941;SDS011;49042;47.318;19.874;2023-08-08T07:15:25;1.80;;;1.10;;
62941;SDS011;49042;47.318;19.874;2023-08-08T07:18:27;5.60;;;1.40;;
62941;SDS011;49042;47.318;19.874;2023-08-08T07:21:29;3.45;;;1.20;;
62941;SDS011;49042;47.318;19.874;2023-08-08T07:24:30;4.20;;;1.33;;
62941;SDS011;49042;47.318;19.874;2023-08-08T07:27:32;5.07;;;1.25;;
62941;SDS011;49042;47.318;19.874;2023-08-08T07:30:34;1.98;;;1.20;;
62941;SDS011;49042;47.318;19.874;2023-08-08T07:33:36;4.75;;;1.70;;
62941;SDS011;49042;47.318;19.874;2023-08-08T07:36:38;2.67;;;1.42;;
62941;SDS011;49042;47.318;19.874;2023-08-08T07:39:40;2.72;;;1.95;;
62941;SDS011;49042;47.318;19.874;2023-08-08T07:42:42;1.70;;;1.17;;
62941;SDS011;49042;47.318;19.874;2023-08-08T07:45:43;4.15;;;1.60;;
62941;SDS011;49042;47.318;19.874;2023-08-08T07:48:45;3.95;;;1.30;;
62941;SDS011;49042;47.318;19.874;2023-08-08T07:51:47;7.32;;;1.40;;
62941;SDS011;49042;47.318;19.874;2023-08-08T07:54:48;5.00;;;1.48;;
62941;SDS011;49042;47.318;19.874;2023-08-08T07:57:50;2.35;;;1.17;;
62941;SDS011;49042;47.318;19.874;2023-08-08T08:00:53;3.12;;;1.27;;
62941;SDS011;49042;47.318;19.874;2023-08-08T08:03:54;1.80;;;1.37;;
62941;SDS011;49042;47.318;19.874;2023-08-08T08:06:56;4.20;;;2.05;;
62941;SDS011;49042;47.318;19.874;2023-08-08T08:09:58;3.53;;;1.48;;
62941;SDS011;49042;47.318;19.874;2023-08-08T08:13:00;14.75;;;2.10;;
62941;SDS011;49042;47.318;19.874;2023-08-08T08:16:01;2.62;;;1.00;;
62941;SDS011;49042;47.318;19.874;2023-08-08T08:19:03;3.30;;;1.20;;
62941;SDS011;49042;47.318;19.874;2023-08-08T08:22:05;3.03;;;1.30;;
62941;SDS011;49042;47.318;19.874;2023-08-08T08:25:07;2.85;;;1.30;;
62941;SDS011;49042;47.318;19.874;2023-08-08T08:28:10;3.60;;;1.40;;
62941;SDS011;49042;47.318;19.874;2023-08-08T08:31:12;4.72;;;1.12;;
62941;SDS011;49042;47.318;19.874;2023-08-08T08:34:14;4.97;;;1.35;;
62941;SDS011;49042;47.318;19.874;2023-08-08T08:37:16;2.12;;;1.25;;
62941;SDS011;49042;47.318;19.874;2023-08-08T08:40:18;1.73;;;1.02;;
62941;SDS011;49042;47.318;19.874;2023-08-08T08:43:20;2.47;;;1.20;;
62941;SDS011;49042;47.318;19.874;2023-08-08T08:46:21;2.40;;;1.35;;
62941;SDS011;49042;47.318;19.874;2023-08-08T08:49:24;3.35;;;1.48;;
62941;SDS011;49042;47.318;19.874;2023-08-08T08:52:26;4.32;;;1.40;;
62941;SDS011;49042;47.318;19.874;2023-08-08T08:55:28;7.55;;;1.20;;
62941;SDS011;49042;47.318;19.874;2023-08-08T08:58:30;4.32;;;1.40;;
62941;SDS011;49042;47.318;19.874;2023-08-08T09:01:32;3.67;;;1.30;;
62941;SDS011;49042;47.318;19.874;2023-08-08T09:04:34;3.70;;;1.02;;
62941;SDS011;49042;47.318;19.874;2023-08-08T09:07:36;3.15;;;1.30;;
62941;SDS011;49042;47.318;19.874;2023-08-08T09:10:38;2.78;;;1.30;;
62941;SDS011;49042;47.318;19.874;2023-08-08T09:13:40;2.87;;;1.50;;
62941;SDS011;49042;47.318;19.874;2023-08-08T09:16:42;3.95;;;1.80;;
62941;SDS011;49042;47.318;19.874;2023-08-08T09:19:44;4.97;;;1.85;;
62941;SDS011;49042;47.318;19.874;2023-08-08T09:22:48;2.92;;;1.27;;
62941;SDS011;49042;47.318;19.874;2023-08-08T09:25:49;3.67;;;1.20;;
62941;SDS011;49042;47.318;19.874;2023-08-08T09:28:52;6.72;;;1.20;;
62941;SDS011;49042;47.318;19.874;2023-08-08T09:31:54;2.22;;;1.08;;
62941;SDS011;49042;47.318;19.874;2023-08-08T09:34:56;1.40;;;1.08;;
62941;SDS011;49042;47.318;19.874;2023-08-08T09:37:58;3.58;;;1.40;;
62941;SDS011;49042;47.318;19.874;2023-08-08T09:41:00;5.20;;;1.20;;
62941;SDS011;49042;47.318;19.874;2023-08-08T09:44:02;2.47;;;1.00;;
62941;SDS011;49042;47.318;19.874;2023-08-08T09:47:04;2.60;;;1.25;;
62941;SDS011;49042;47.318;19.874;2023-08-08T09:50:06;2.53;;;1.30;;
62941;SDS011;49042;47.318;19.874;2023-08-08T09:53:08;2.35;;;1.20;;
62941;SDS011;49042;47.318;19.874;2023-08-08T09:56:10;5.93;;;1.30;;
62941;SDS011;49042;47.318;19.874;2023-08-08T09:59:13;2.28;;;1.35;;
62941;SDS011;49042;47.318;19.874;2023-08-08T10:02:15;1.77;;;1.10;;
62941;SDS011;49042;47.318;19.874;2023-08-08T10:05:17;2.72;;;1.30;;
62941;SDS011;49042;47.318;19.874;2023-08-08T10:08:19;2.87;;;1.20;;
62941;SDS011;49042;47.318;19.874;2023-08-08T10:11:21;4.32;;;1.30;;
62941;SDS011;49042;47.318;19.874;2023-08-08T10:14:29;2.62;;;1.20;;
62941;SDS011;49042;47.318;19.874;2023-08-08T10:17:35;4.03;;;1.40;;
62941;SDS011;49042;47.318;19.874;2023-08-08T10:20:38;2.07;;;1.20;;
62941;SDS011;49042;47.318;19.874;2023-08-08T10:23:40;4.43;;;1.37;;
62941;SDS011;49042;47.318;19.874;2023-08-08T10:26:56;3.37;;;1.23;;
62941;SDS011;49042;47.318;19.874;2023-08-08T10:30:08;6.05;;;1.30;;
62941;SDS011;49042;47.318;19.874;2023-08-08T10:34:00;4.07;;;1.25;;
62941;SDS011;49042;47.318;19.874;2023-08-08T10:36:47;9.07;;;1.15;;
62941;SDS011;49042;47.318;19.874;2023-08-08T10:39:52;2.95;;;1.08;;
62941;SDS011;49042;47.318;19.874;2023-08-08T10:42:55;4.30;;;1.27;;
62941;SDS011;49042;47.318;19.874;2023-08-08T10:46:00;3.50;;;1.25;;
62941;SDS011;49042;47.318;19.874;2023-08-08T10:49:13;1.73;;;1.20;;
62941;SDS011;49042;47.318;19.874;2023-08-08T10:52:16;1.75;;;1.17;;
62941;SDS011;49042;47.318;19.874;2023-08-08T10:58:37;4.43;;;1.40;;
62941;SDS011;49042;47.318;19.874;2023-08-08T11:01:39;3.60;;;1.60;;
62941;SDS011;49042;47.318;19.874;2023-08-08T11:04:41;5.20;;;1.45;;
62941;SDS011;49042;47.318;19.874;2023-08-08T11:07:43;2.15;;;1.37;;
62941;SDS011;49042;47.318;19.874;2023-08-08T11:10:45;4.18;;;1.50;;
62941;SDS011;49042;47.318;19.874;2023-08-08T11:13:53;6.20;;;1.50;;
62941;SDS011;49042;47.318;19.874;2023-08-08T11:16:55;3.62;;;1.30;;
62941;SDS011;49042;47.318;19.874;2023-08-08T11:19:57;5.85;;;1.37;;
62941;SDS011;49042;47.318;19.874;2023-08-08T11:22:59;6.93;;;1.60;;
62941;SDS011;49042;47.318;19.874;2023-08-08T11:26:01;1.98;;;1.10;;
62941;SDS011;49042;47.318;19.874;2023-08-08T11:29:06;4.03;;;1.30;;
62941;SDS011;49042;47.318;19.874;2023-08-08T11:32:08;2.87;;;1.40;;
62941;SDS011;49042;47.318;19.874;2023-08-08T11:35:10;12.35;;;1.75;;
62941;SDS011;49042;47.318;19.874;2023-08-08T11:38:12;2.05;;;1.40;;
62941;SDS011;49042;47.318;19.874;2023-08-08T11:41:15;3.35;;;1.30;;
62941;SDS011;49042;47.318;19.874;2023-08-08T11:44:19;4.70;;;1.50;;
62941;SDS011;49042;47.318;19.874;2023-08-08T11:47:24;2.12;;;1.42;;
62941;SDS011;49042;47.318;19.874;2023-08-08T11:50:26;4.03;;;1.40;;
62941;SDS011;49042;47.318;19.874;2023-08-08T11:53:29;4.07;;;1.20;;
62941;SDS011;49042;47.318;19.874;2023-08-08T11:56:34;5.32;;;1.60;;
62941;SDS011;49042;47.318;19.874;2023-08-08T11:59:37;2.15;;;1.25;;
62941;SDS011;49042;47.318;19.874;2023-08-08T12:02:39;2.25;;;1.20;;
62941;SDS011;49042;47.318;19.874;2023-08-08T12:05:44;6.47;;;1.27;;
62941;SDS011;49042;47.318;19.874;2023-08-08T12:08:47;2.25;;;1.10;;
62941;SDS011;49042;47.318;19.874;2023-08-08T12:11:50;6.12;;;1.37;;
62941;SDS011;49042;47.318;19.874;2023-08-08T12:14:53;5.68;;;1.30;;
62941;SDS011;49042;47.318;19.874;2023-08-08T12:17:57;4.90;;;1.40;;
62941;SDS011;49042;47.318;19.874;2023-08-08T12:21:00;4.10;;;1.40;;
62941;SDS011;49042;47.318;19.874;2023-08-08T12:24:03;2.15;;;1.40;;
62941;SDS011;49042;47.318;19.874;2023-08-08T12:27:04;6.47;;;1.40;;
62941;SDS011;49042;47.318;19.874;2023-08-08T12:30:06;5.78;;;1.42;;
62941;SDS011;49042;47.318;19.874;2023-08-08T12:33:08;2.35;;;1.10;;
62941;SDS011;49042;47.318;19.874;2023-08-08T12:36:10;1.40;;;1.05;;
62941;SDS011;49042;47.318;19.874;2023-08-08T12:39:12;2.00;;;1.20;;
62941;SDS011;49042;47.318;19.874;2023-08-08T12:42:14;3.35;;;1.30;;
62941;SDS011;49042;47.318;19.874;2023-08-08T12:45:15;3.75;;;1.42;;
62941;SDS011;49042;47.318;19.874;2023-08-08T12:48:19;4.05;;;1.10;;
62941;SDS011;49042;47.318;19.874;2023-08-08T12:51:20;4.35;;;1.20;;
62941;SDS011;49042;47.318;19.874;2023-08-08T12:54:22;9.32;;;1.20;;
62941;SDS011;49042;47.318;19.874;2023-08-08T12:57:24;2.90;;;1.58;;
62941;SDS011;49042;47.318;19.874;2023-08-08T13:00:26;2.70;;;1.33;;
62941;SDS011;49042;47.318;19.874;2023-08-08T13:03:28;3.50;;;1.40;;
62941;SDS011;49042;47.318;19.874;2023-08-08T13:06:31;1.55;;;1.17;;
62941;SDS011;49042;47.318;19.874;2023-08-08T13:09:34;2.97;;;1.30;;
62941;SDS011;49042;47.318;19.874;2023-08-08T13:12:36;2.28;;;1.35;;
62941;SDS011;49042;47.318;19.874;2023-08-08T13:15:37;2.08;;;1.42;;
62941;SDS011;49042;47.318;19.874;2023-08-08T13:18:39;7.50;;;1.40;;
62941;SDS011;49042;47.318;19.874;2023-08-08T13:21:41;2.47;;;1.12;;
62941;SDS011;49042;47.318;19.874;2023-08-08T13:24:43;4.93;;;1.60;;
62941;SDS011;49042;47.318;19.874;2023-08-08T13:27:45;3.87;;;1.15;;
62941;SDS011;49042;47.318;19.874;2023-08-08T13:30:49;2.05;;;1.27;;
62941;SDS011;49042;47.318;19.874;2023-08-08T13:33:50;1.42;;;1.20;;
62941;SDS011;49042;47.318;19.874;2023-08-08T13:36:52;2.35;;;1.20;;
62941;SDS011;49042;47.318;19.874;2023-08-08T13:39:54;7.82;;;1.58;;
62941;SDS011;49042;47.318;19.874;2023-08-08T13:42:55;2.58;;;1.23;;
62941;SDS011;49042;47.318;19.874;2023-08-08T13:45:57;3.60;;;1.73;;
62941;SDS011;49042;47.318;19.874;2023-08-08T13:48:59;3.03;;;1.30;;
62941;SDS011;49042;47.318;19.874;2023-08-08T13:52:01;1.90;;;1.20;;
62941;SDS011;49042;47.318;19.874;2023-08-08T13:55:03;3.28;;;1.23;;
62941;SDS011;49042;47.318;19.874;2023-08-08T13:58:08;4.25;;;1.20;;
62941;SDS011;49042;47.318;19.874;2023-08-08T14:01:10;6.45;;;1.40;;
62941;SDS011;49042;47.318;19.874;2023-08-08T14:04:12;3.90;;;1.30;;
62941;SDS011;49042;47.318;19.874;2023-08-08T14:07:14;5.22;;;1.90;;
62941;SDS011;49042;47.318;19.874;2023-08-08T14:10:16;3.67;;;1.48;;
62941;SDS011;49042;47.318;19.874;2023-08-08T14:13:17;1.65;;;1.20;;
62941;SDS011;49042;47.318;19.874;2023-08-08T14:16:20;3.53;;;1.55;;
62941;SDS011;49042;47.318;19.874;2023-08-08T14:19:22;2.65;;;1.50;;
62941;SDS011;49042;47.318;19.874;2023-08-08T14:22:24;2.60;;;1.40;;
62941;SDS011;49042;47.318;19.874;2023-08-08T14:25:26;7.47;;;1.40;;
62941;SDS011;49042;47.318;19.874;2023-08-08T14:28:27;3.08;;;1.62;;
62941;SDS011;49042;47.318;19.874;2023-08-08T14:31:29;4.57;;;1.60;;
62941;SDS011;49042;47.318;19.874;2023-08-08T14:34:33;1.90;;;1.20;;
62941;SDS011;49042;47.318;19.874;2023-08-08T14:37:35;2.42;;;1.20;;
62941;SDS011;49042;47.318;19.874;2023-08-08T14:40:37;2.70;;;1.35;;
62941;SDS011;49042;47.318;19.874;2023-08-08T14:43:39;5.12;;;1.30;;
62941;SDS011;49042;47.318;19.874;2023-08-08T14:46:40;5.50;;;1.40;;
62941;SDS011;49042;47.318;19.874;2023-08-08T14:49:42;69.03;;;4.10;;
62941;SDS011;49042;47.318;19.874;2023-08-08T14:52:44;4.05;;;1.40;;
62941;SDS011;49042;47.318;19.874;2023-08-08T14:55:46;5.30;;;1.95;;
62941;SDS011;49042;47.318;19.874;2023-08-08T14:58:49;3.33;;;1.40;;
62941;SDS011;49042;47.318;19.874;2023-08-08T15:01:51;2.20;;;1.40;;
62941;SDS011;49042;47.318;19.874;2023-08-08T15:04:52;2.37;;;1.23;;
62941;SDS011;49042;47.318;19.874;2023-08-08T15:07:55;2.75;;;1.37;;
62941;SDS011;49042;47.318;19.874;2023-08-08T15:10:57;2.47;;;1.27;;
62941;SDS011;49042;47.318;19.874;2023-08-08T15:13:59;1.83;;;1.45;;
62941;SDS011;49042;47.318;19.874;2023-08-08T15:17:00;2.00;;;1.27;;
62941;SDS011;49042;47.318;19.874;2023-08-08T15:20:03;3.72;;;1.52;;
62941;SDS011;49042;47.318;19.874;2023-08-08T15:23:05;3.08;;;1.40;;
62941;SDS011;49042;47.318;19.874;2023-08-08T15:26:09;4.45;;;1.27;;
62941;SDS011;49042;47.318;19.874;2023-08-08T15:29:10;3.22;;;1.67;;
62941;SDS011;49042;47.318;19.874;2023-08-08T15:32:12;3.00;;;1.42;;
62941;SDS011;49042;47.318;19.874;2023-08-08T15:35:14;3.90;;;1.37;;
62941;SDS011;49042;47.318;19.874;2023-08-08T15:38:16;5.40;;;1.50;;
62941;SDS011;49042;47.318;19.874;2023-08-08T15:41:17;2.75;;;1.40;;
62941;SDS011;49042;47.318;19.874;2023-08-08T15:44:19;1.85;;;1.30;;
62941;SDS011;49042;47.318;19.874;2023-08-08T15:47:21;5.68;;;1.70;;
62941;SDS011;49042;47.318;19.874;2023-08-08T15:50:22;3.78;;;1.30;;
62941;SDS011;49042;47.318;19.874;2023-08-08T15:53:24;3.30;;;1.50;;
62941;SDS011;49042;47.318;19.874;2023-08-08T15:56:29;7.90;;;1.77;;
62941;SDS011;49042;47.318;19.874;2023-08-08T15:59:30;2.35;;;1.50;;
62941;SDS011;49042;47.318;19.874;2023-08-08T16:02:32;2.60;;;1.80;;
62941;SDS011;49042;47.318;19.874;2023-08-08T16:05:34;6.68;;;1.77;;
62941;SDS011;49042;47.318;19.874;2023-08-08T16:08:36;2.00;;;1.50;;
62941;SDS011;49042;47.318;19.874;2023-08-08T16:11:37;2.85;;;1.35;;
62941;SDS011;49042;47.318;19.874;2023-08-08T16:14:39;3.20;;;1.40;;
62941;SDS011;49042;47.318;19.874;2023-08-08T16:17:41;6.30;;;1.50;;
62941;SDS011;49042;47.318;19.874;2023-08-08T16:20:43;4.32;;;1.62;;
62941;SDS011;49042;47.318;19.874;2023-08-08T16:23:44;3.00;;;1.58;;
62941;SDS011;49042;47.318;19.874;2023-08-08T16:26:46;4.87;;;1.58;;
62941;SDS011;49042;47.318;19.874;2023-08-08T16:29:48;2.83;;;1.60;;
62941;SDS011;49042;47.318;19.874;2023-08-08T16:32:50;4.28;;;1.70;;
62941;SDS011;49042;47.318;19.874;2023-08-08T16:35:53;2.30;;;1.77;;
62941;SDS011;49042;47.318;19.874;2023-08-08T16:38:55;2.85;;;2.10;;
62941;SDS011;49042;47.318;19.874;2023-08-08T16:42:16;1.80;;;1.05;;
62941;SDS011;49042;47.318;19.874;2023-08-08T16:45:18;1.95;;;1.30;;
62941;SDS011;49042;47.318;19.874;2023-08-08T16:48:20;3.00;;;1.50;;
62941;SDS011;49042;47.318;19.874;2023-08-08T16:51:22;2.65;;;1.23;;
62941;SDS011;49042;47.318;19.874;2023-08-08T16:54:25;1.83;;;1.33;;
62941;SDS011;49042;47.318;19.874;2023-08-08T16:57:27;1.67;;;1.25;;
62941;SDS011;49042;47.318;19.874;2023-08-08T17:00:29;3.85;;;1.40;;
62941;SDS011;49042;47.318;19.874;2023-08-08T17:03:31;5.97;;;2.40;;
62941;SDS011;49042;47.318;19.874;2023-08-08T17:06:33;4.10;;;1.90;;
62941;SDS011;49042;47.318;19.874;2023-08-08T17:09:36;2.47;;;1.80;;
62941;SDS011;49042;47.318;19.874;2023-08-08T17:12:38;4.65;;;2.90;;
62941;SDS011;49042;47.318;19.874;2023-08-08T17:15:40;8.38;;;3.10;;
62941;SDS011;49042;47.318;19.874;2023-08-08T17:18:42;3.72;;;1.50;;
62941;SDS011;49042;47.318;19.874;2023-08-08T17:21:44;8.30;;;3.55;;
62941;SDS011;49042;47.318;19.874;2023-08-08T17:24:46;7.60;;;4.30;;
62941;SDS011;49042;47.318;19.874;2023-08-08T17:27:49;9.18;;;4.28;;
62941;SDS011;49042;47.318;19.874;2023-08-08T17:30:51;10.50;;;3.80;;
62941;SDS011;49042;47.318;19.874;2023-08-08T17:33:53;8.65;;;2.80;;
62941;SDS011;49042;47.318;19.874;2023-08-08T17:36:58;7.05;;;2.28;;
62941;SDS011;49042;47.318;19.874;2023-08-08T17:40:00;5.45;;;1.83;;
62941;SDS011;49042;47.318;19.874;2023-08-08T17:43:02;3.55;;;1.50;;
62941;SDS011;49042;47.318;19.874;2023-08-08T17:46:05;2.22;;;1.42;;
62941;SDS011;49042;47.318;19.874;2023-08-08T17:49:07;3.58;;;1.90;;
62941;SDS011;49042;47.318;19.874;2023-08-08T17:52:09;3.90;;;1.58;;
62941;SDS011;49042;47.318;19.874;2023-08-08T17:55:11;3.75;;;1.65;;
62941;SDS011;49042;47.318;19.874;2023-08-08T17:58:13;2.75;;;1.45;;
62941;SDS011;49042;47.318;19.874;2023-08-08T18:01:15;3.87;;;1.62;;
62941;SDS011;49042;47.318;19.874;2023-08-08T18:04:19;5.35;;;1.95;;
62941;SDS011;49042;47.318;19.874;2023-08-08T18:07:23;2.17;;;1.50;;